Oneida, WI (54155)

3:50 AM CDT on October 25, 2014 (GMT -0500)
MountainBayTrail | Change Station
CLOSE
Current Station
Personal Weather Station
Location: Howard, WI
Elevation: 650 ft
Nearby Weather Stations

Elev 650 ft 44.58 °N, 88.09 °W | Updated 24 seconds ago

Overcast
Overcast
55.8 °F
Feels Like 55.8 °F
N
1.0
Wind Variable Wind from NW
Gusts 10.0 mph

Today
High -- | Low -- °F
--% Chance of Precip.
Yesterday
High -- | Low -- °F
Precip. -- in
7:20 AM 5:52 PM
New Moon, 2% visible
Pressure 29.80 in
Visibility 5.0 miles
Clouds Few 1300 ft
Dew Point 54 °F
Humidity 95%
Rainfall 0.00 in
Snow Depth Not available.
UV 0 out of 12
Pollen .90 out of 12
PM2.5 Good
Flu Activity Sporadic
SPECI KGRB 250827Z AUTO 26009KT 5SM BR FEW013 13/12 A2980 RMK AO2 T01330117

More Conditions Fewer Conditions

Pressure 29.80 in
Visibility 5.0 miles
Clouds Few 1300 ft
Dew Point 54 °F
Humidity 95%
Rainfall 0.00 in
Snow Depth Not available.
UV 0 out of 12
Pollen .90 out of 12
PM2.5 Good
Flu Activity Sporadic
SPECI KGRB 250827Z AUTO 26009KT 5SM BR FEW013 13/12 A2980 RMK AO2 T01330117

More Conditions Fewer Conditions

10-Day Weather Forecast

Almanac

Astronomy

Oct. 25, 2014 Rise Set
Actual Time 7:20 AM CDT 5:52 PM CDT
Civil Twilight 6:51 AM CDT 6:21 PM CDT
Nautical Twilight 6:16 AM CDT 6:55 PM CDT
Astronomical Twilight 5:43 AM CDT 7:29 PM CDT
Moon 9:02 AM CDT 7:11 PM CDT
Length of Visible Light 11h 30m
Length of Day
10h 31m
Tomorrow will be 2m 52s shorter.
New Moon, 2% of the Moon is Illuminated
Today
New Moon
Oct 30
First Quarter
Nov 6
Full
Nov 14
Last Quarter
Nov 22
New

Today's Extremes

State Highs State Lows

Community

WunderPhotos

Upload Photos

1,764,791 photos uploaded!

Nearby

Air Quality

  Air Quality AQ Index Pollutant
Yesterday Moderate
PM2.5
Current Good
PM2.5
Saturday Good
PM2.5
Sunday Good
PM2.5

Snow Depth

Station Depth Elevation
No new snow has been reported.

Earthquake Activity

City Distance Mag. Time & Date
No recent earthquake activity has been reported nearby.
Minimum magnitude displayed is 2.5.

Coastal Water Temperatures

Place Temperature
Menominee, MI 50.0 °F

Nearby Weather Stations